Terminal Aerodrome Forecast
Issued by NWS

Home | Current Version | Previous Version | Text Only | Print | Product List | Glossary On
Versions: 1 2 3 4 5 6 7 8 9 10 11 12 13 14 15 16 17 18 19 20 21 22 23 24 25 26 27 28 29 30 31 32 33 34 35 36 37 38 39 40 41 42 43 44 45
000
FTAK31 PAFA 060320 AAB
TAFAMC
TAF AMD
PAMC 060320Z 0603/0624 32005KT P6SM -SHSN OVC015
     FM060900 14004KT P6SM SCT030 OVC060
     FM061900 VRB04KT P6SM -SHRASN FEW015 BKN040 OVC090
     FM062200 VRB04KT P6SM -SHRA FEW007 BKN015 OVC040=

USA.gov is the U.S. government's official web portal to all federal, state and local government web resources and services.